Time;durP1;ratioP1;P1;durP2;ratioP2;P2;SDS_P1;SDS_P2;PMS_P1;PMS_P2;Temp;Humidity;BMP_temperature;BMP_pressure;BME280_temperature;BME280_humidity;BME280_pressure;Samples;Min_cycle;Max_cycle;Signal;HPM_P1;HPM_P2
2023/12/09 00:01:19;;;;;;;6.35;2.95;;;;;;;6.31;58.09;100801.91;4951950;28;20133;-72
2023/12/09 00:03:47;;;;;;;6.03;2.53;;;;;;;6.32;58.09;100798.22;4948022;29;20524;-72
2023/12/09 00:06:16;;;;;;;5.38;2.85;;;;;;;6.32;58.48;100800.06;4932281;29;20445;-72
2023/12/09 00:08:44;;;;;;;8.18;2.72;;;;;;;6.32;58.30;100817.25;4944289;29;20047;-72
2023/12/09 00:11:14;;;;;;;5.32;2.53;;;;;;;6.34;57.95;100815.31;4949227;28;20043;-72
2023/12/09 00:13:42;;;;;;;6.63;3.00;;;;;;;6.34;58.28;100814.44;4952426;28;20071;-72
2023/12/09 00:16:13;;;;;;;7.35;2.50;;;;;;;6.34;58.02;100815.31;4931578;29;20135;-72
2023/12/09 00:18:41;;;;;;;5.32;2.85;;;;;;;6.35;57.99;100813.47;4945103;28;20048;-72
2023/12/09 00:21:10;;;;;;;6.80;2.45;;;;;;;6.37;57.92;100811.47;4931480;29;20512;-72
2023/12/09 00:23:38;;;;;;;5.57;2.63;;;;;;;6.36;58.00;100813.34;4947599;28;20054;-73
2023/12/09 00:26:16;;;;;;;4.82;2.58;;;;;;;6.37;58.26;100817.78;4952296;28;20078;-74
2023/12/09 00:28:45;;;;;;;6.25;2.97;;;;;;;6.37;57.93;100814.19;4931878;28;20147;-73
2023/12/09 00:31:14;;;;;;;5.13;2.60;;;;;;;6.38;58.13;100818.66;4935745;28;20047;-73
2023/12/09 00:33:42;;;;;;;6.72;2.78;;;;;;;6.36;58.31;100807.91;4933545;29;20063;-73
2023/12/09 00:36:10;;;;;;;4.90;2.53;;;;;;;6.35;58.05;100806.16;4933730;29;20043;-73
2023/12/09 00:38:39;;;;;;;5.70;2.40;;;;;;;6.35;58.13;100800.72;4925201;29;20134;-72
2023/12/09 00:41:08;;;;;;;4.97;2.35;;;;;;;6.35;58.24;100803.44;4950583;28;20424;-73
2023/12/09 00:43:37;;;;;;;6.38;2.35;;;;;;;6.36;58.06;100809.75;4945822;28;20580;-73
2023/12/09 00:46:06;;;;;;;6.15;2.40;;;;;;;6.34;57.88;100807.16;4935892;29;20081;-73
2023/12/09 00:48:34;;;;;;;7.90;2.47;;;;;;;6.33;57.90;100808.13;4941912;29;20127;-73
2023/12/09 00:51:02;;;;;;;6.97;2.95;;;;;;;6.33;58.05;100801.81;4926390;29;20047;-73
2023/12/09 00:53:30;;;;;;;5.07;2.38;;;;;;;6.32;58.28;100803.66;4929473;29;20496;-73
2023/12/09 00:55:58;;;;;;;5.85;2.40;;;;;;;6.33;57.81;100807.25;4947223;28;20453;-73
2023/12/09 00:58:26;;;;;;;5.03;2.40;;;;;;;6.33;58.23;100815.41;4926066;29;20070;-72
2023/12/09 01:00:55;;;;;;;4.53;2.15;;;;;;;6.33;57.70;100820.84;4948193;28;20564;-73
2023/12/09 01:03:23;;;;;;;4.93;2.78;;;;;;;6.31;57.92;100818.22;4941458;28;20044;-72
2023/12/09 01:05:51;;;;;;;7.70;2.72;;;;;;;6.31;57.65;100820.06;4947837;28;20055;-73
2023/12/09 01:08:20;;;;;;;6.28;2.30;;;;;;;6.31;58.07;100817.34;4943414;28;20551;-73
2023/12/09 01:10:48;;;;;;;5.20;2.33;;;;;;;6.28;57.64;100813.00;4948281;28;20113;-73
2023/12/09 01:13:16;;;;;;;5.00;1.90;;;;;;;6.28;58.02;100815.72;4928656;29;20652;-72
2023/12/09 01:15:44;;;;;;;4.03;2.30;;;;;;;6.29;57.94;100822.00;4948890;28;20394;-72
2023/12/09 01:18:14;;;;;;;4.68;2.60;;;;;;;6.28;58.00;100825.75;4945456;28;20428;-72
2023/12/09 01:20:42;;;;;;;5.00;2.03;;;;;;;6.26;58.09;100823.13;4942694;28;20521;-72
2023/12/09 01:23:10;;;;;;;5.53;2.00;;;;;;;6.26;57.75;100823.13;4928910;29;20505;-72
2023/12/09 01:25:38;;;;;;;6.45;2.22;;;;;;;6.25;57.77;100818.66;4931019;28;20051;-72
2023/12/09 01:28:06;;;;;;;4.57;2.00;;;;;;;6.26;58.05;100814.09;4948067;28;20071;-72
2023/12/09 01:30:34;;;;;;;5.30;2.25;;;;;;;6.26;57.75;100816.81;4930236;28;20043;-72
2023/12/09 01:33:02;;;;;;;4.25;1.90;;;;;;;6.26;57.83;100816.81;4949324;28;20555;-72
2023/12/09 01:35:32;;;;;;;4.20;2.22;;;;;;;6.27;57.90;100813.13;4929083;28;20125;-72
2023/12/09 01:38:00;;;;;;;6.05;2.00;;;;;;;6.26;58.17;100803.22;4947566;28;20078;-72
2023/12/09 01:40:28;;;;;;;4.70;2.00;;;;;;;6.26;57.76;100797.78;4933970;29;20643;-72
2023/12/09 01:42:56;;;;;;;4.38;1.80;;;;;;;6.27;58.04;100805.84;4947034;28;20583;-72
2023/12/09 01:45:23;;;;;;;5.65;2.10;;;;;;;6.28;57.86;100807.56;4945834;28;20502;-72
2023/12/09 01:47:52;;;;;;;5.40;1.90;;;;;;;6.28;57.72;100799.41;4927992;29;20089;-73
2023/12/09 01:50:20;;;;;;;4.20;2.00;;;;;;;6.26;57.72;100803.22;4949885;28;20118;-72
2023/12/09 01:52:50;;;;;;;5.65;2.22;;;;;;;6.28;57.87;100801.28;4947446;28;20777;-72
2023/12/09 01:55:18;;;;;;;5.15;1.88;;;;;;;6.27;57.68;100799.53;4936605;29;20119;-73
2023/12/09 01:57:46;;;;;;;5.38;2.33;;;;;;;6.27;57.64;100803.13;4942576;29;20143;-72
2023/12/09 02:00:15;;;;;;;3.67;1.80;;;;;;;6.27;57.61;100805.84;4946803;28;20035;-72
2023/12/09 02:02:44;;;;;;;4.72;2.00;;;;;;;6.27;57.66;100814.00;4945527;28;20054;-72
2023/12/09 02:05:13;;;;;;;3.90;1.70;;;;;;;6.26;57.76;100817.69;4948613;28;20043;-72
2023/12/09 02:07:41;;;;;;;5.40;1.90;;;;;;;6.26;57.55;100803.22;4945185;28;20056;-72
2023/12/09 02:10:10;;;;;;;5.22;1.95;;;;;;;6.28;57.49;100804.00;4931911;29;20585;-72
2023/12/09 02:12:44;;;;;;;4.93;2.13;;;;;;;6.29;57.72;100797.56;4927327;29;20063;-72
2023/12/09 02:15:19;;;;;;;5.50;2.17;;;;;;;6.28;57.90;100795.84;4932557;28;20527;-72
2023/12/09 02:17:54;;;;;;;4.35;2.05;;;;;;;6.29;57.70;100784.84;4947355;28;20130;-72
2023/12/09 02:20:22;;;;;;;6.20;1.80;;;;;;;6.27;57.47;100794.97;4924796;29;20263;-72
2023/12/09 02:22:50;;;;;;;4.85;2.15;;;;;;;6.27;57.82;100786.81;4947853;28;20071;-72
2023/12/09 02:25:20;;;;;;;5.25;1.98;;;;;;;6.29;57.93;100781.25;4929983;29;20035;-72
2023/12/09 02:27:53;;;;;;;4.80;1.85;;;;;;;6.29;57.67;100778.53;4942592;29;20075;-72
2023/12/09 02:30:26;;;;;;;5.28;1.70;;;;;;;6.29;57.52;100763.09;4929487;28;20074;-72
2023/12/09 02:32:58;;;;;;;4.25;1.90;;;;;;;6.29;57.56;100763.09;4947922;28;20043;-72
2023/12/09 02:35:29;;;;;;;4.03;1.73;;;;;;;6.28;57.95;100771.38;4944094;28;20043;-72
2023/12/09 02:37:58;;;;;;;6.05;2.08;;;;;;;6.29;57.46;100763.09;4950168;28;20091;-72
2023/12/09 02:40:29;;;;;;;6.13;2.28;;;;;;;6.30;57.56;100764.84;4945289;28;20118;-72
2023/12/09 02:42:57;;;;;;;5.95;2.05;;;;;;;6.29;57.34;100767.66;4929919;29;20134;-72
2023/12/09 02:45:25;;;;;;;8.80;2.28;;;;;;;6.29;57.36;100767.66;4930472;28;20546;-72
2023/12/09 02:47:53;;;;;;;4.18;1.92;;;;;;;6.29;57.65;100767.66;4947697;28;20150;-73
2023/12/09 02:50:21;;;;;;;5.43;2.05;;;;;;;6.29;57.46;100764.94;4945100;29;20059;-72
2023/12/09 02:52:49;;;;;;;6.60;2.30;;;;;;;6.28;57.41;100760.50;4943708;28;20047;-72
2023/12/09 02:55:18;;;;;;;5.95;2.20;;;;;;;6.28;57.42;100760.50;4949073;28;20042;-72
2023/12/09 02:57:47;;;;;;;4.90;2.00;;;;;;;6.28;57.63;100768.66;4948466;28;20042;-72
2023/12/09 03:00:16;;;;;;;8.55;2.20;;;;;;;6.27;57.45;100766.91;4947103;28;20098;-72
2023/12/09 03:02:44;;;;;;;4.60;1.70;;;;;;;6.26;57.31;100760.63;4949071;28;20047;-72
2023/12/09 03:05:12;;;;;;;5.38;1.83;;;;;;;6.26;57.18;100763.34;4952946;29;20082;-73
2023/12/09 03:07:40;;;;;;;3.97;2.05;;;;;;;6.25;57.40;100758.88;4946033;28;20055;-74
2023/12/09 03:10:09;;;;;;;5.72;1.77;;;;;;;6.25;57.31;100750.72;4953579;28;20544;-73
2023/12/09 03:12:37;;;;;;;5.13;2.13;;;;;;;6.25;57.61;100745.28;4930833;29;20035;-72
2023/12/09 03:15:07;;;;;;;3.67;1.65;;;;;;;6.26;57.17;100744.31;4948931;28;20118;-72
2023/12/09 03:17:36;;;;;;;7.35;2.22;;;;;;;6.23;57.01;100728.22;4933700;29;20106;-73
2023/12/09 03:20:08;;;;;;;4.45;1.88;;;;;;;6.25;57.36;100730.81;4933930;29;20043;-72
2023/12/09 03:22:36;;;;;;;6.35;1.90;;;;;;;6.24;57.07;100729.09;4948857;28;20397;-72
2023/12/09 03:25:05;;;;;;;5.18;2.10;;;;;;;6.23;57.42;100732.78;4949425;28;20043;-72
2023/12/09 03:27:33;;;;;;;5.03;1.95;;;;;;;6.22;57.18;100731.91;4946596;28;20714;-72
2023/12/09 03:30:01;;;;;;;4.95;2.20;;;;;;;6.22;57.34;100734.63;4922434;29;20078;-72
2023/12/09 03:32:30;;;;;;;4.80;2.28;;;;;;;6.24;57.26;100720.94;4948450;28;20070;-73
2023/12/09 03:34:58;;;;;;;4.75;1.70;;;;;;;6.22;57.25;100720.16;4934673;29;20138;-73
2023/12/09 03:37:26;;;;;;;6.18;2.20;;;;;;;6.22;57.03;100715.59;4946431;28;20047;-72
2023/12/09 03:39:55;;;;;;;6.32;2.28;;;;;;;6.22;57.17;100710.16;4930297;29;20059;-72
2023/12/09 03:42:22;;;;;;;5.07;1.98;;;;;;;6.23;57.32;100713.75;4933313;28;20138;-72
2023/12/09 03:44:51;;;;;;;8.35;2.75;;;;;;;6.23;57.26;100713.75;4948243;28;20050;-72
2023/12/09 03:47:19;;;;;;;4.43;1.92;;;;;;;6.23;57.01;100711.03;4952180;28;20039;-72
2023/12/09 03:49:57;;;;;;;6.38;2.65;;;;;;;6.23;57.06;100724.63;4952196;28;20137;-72
2023/12/09 03:52:25;;;;;;;5.43;2.33;;;;;;;6.22;57.07;100712.88;4947277;28;20082;-72
2023/12/09 03:54:54;;;;;;;5.60;2.08;;;;;;;6.22;57.21;100718.31;4946894;28;20114;-72
2023/12/09 03:57:21;;;;;;;6.80;2.33;;;;;;;6.21;56.94;100699.41;4935431;29;20130;-72
2023/12/09 03:59:49;;;;;;;6.18;2.28;;;;;;;6.20;57.11;100719.44;4943139;28;20051;-72
2023/12/09 04:02:19;;;;;;;6.63;2.30;;;;;;;6.21;57.11;100688.53;4934754;29;20102;-72
2023/12/09 04:04:47;;;;;;;5.70;2.10;;;;;;;6.20;57.20;100730.28;4948156;28;20050;-71
2023/12/09 04:07:16;;;;;;;6.20;2.20;;;;;;;6.21;57.01;100685.81;4930829;28;20520;-72
2023/12/09 04:09:44;;;;;;;4.53;2.10;;;;;;;6.19;57.02;100731.28;4948274;28;20052;-72
2023/12/09 04:12:12;;;;;;;5.38;2.20;;;;;;;6.18;56.71;100702.34;4929108;29;20074;-72
2023/12/09 04:14:40;;;;;;;5.38;2.20;;;;;;;6.18;56.77;100707.78;4951182;28;20461;-72
2023/12/09 04:17:08;;;;;;;8.07;2.75;;;;;;;6.17;57.02;100698.75;4950665;28;20039;-72
2023/12/09 04:19:36;;;;;;;4.53;1.80;;;;;;;6.18;56.95;100708.66;4948305;28;20053;-72
2023/12/09 04:22:05;;;;;;;6.80;2.42;;;;;;;6.17;56.97;100709.63;4948400;28;20134;-73
2023/12/09 04:24:34;;;;;;;5.47;2.45;;;;;;;6.18;57.06;100715.94;4947133;28;20047;-72
2023/12/09 04:27:02;;;;;;;5.85;2.25;;;;;;;6.16;57.08;100701.59;4951087;28;20066;-72
2023/12/09 04:29:30;;;;;;;6.72;2.20;;;;;;;6.17;56.93;100706.03;4947408;28;20046;-73
2023/12/09 04:31:58;;;;;;;8.85;2.80;;;;;;;6.16;56.78;100715.19;4951044;28;20496;-72
2023/12/09 04:34:27;;;;;;;6.15;1.90;;;;;;;6.16;56.79;100704.31;4932203;29;20070;-72
2023/12/09 04:36:56;;;;;;;5.72;2.13;;;;;;;6.16;57.14;100697.03;4950712;28;20051;-72
2023/12/09 04:39:24;;;;;;;4.70;1.95;;;;;;;6.16;56.94;100698.88;4949581;28;20557;-72
2023/12/09 04:41:53;;;;;;;5.82;2.30;;;;;;;6.18;56.84;100691.47;4946954;28;20466;-72
2023/12/09 04:44:23;;;;;;;4.78;2.28;;;;;;;6.17;56.90;100681.59;4936670;29;20047;-72
2023/12/09 04:46:50;;;;;;;7.32;2.47;;;;;;;6.16;57.00;100685.28;4933410;29;20043;-73
2023/12/09 04:49:18;;;;;;;6.55;2.42;;;;;;;6.16;56.83;100688.88;4929162;29;20414;-72
2023/12/09 04:51:47;;;;;;;6.18;2.88;;;;;;;6.15;56.71;100681.69;4949433;28;20051;-72
2023/12/09 04:54:15;;;;;;;6.68;2.28;;;;;;;6.15;56.75;100670.81;4949442;28;20078;-72
2023/12/09 04:56:43;;;;;;;4.57;2.30;;;;;;;6.14;56.39;100679.09;4930837;28;20083;-72
2023/12/09 04:59:12;;;;;;;6.75;2.92;;;;;;;6.14;56.73;100674.53;4930590;29;20057;-72
2023/12/09 05:01:41;;;;;;;5.93;2.50;;;;;;;6.12;56.48;100660.16;4947698;28;20118;-73
2023/12/09 05:04:09;;;;;;;5.28;2.47;;;;;;;6.11;56.62;100663.03;4947500;28;20474;-72
2023/12/09 05:06:37;;;;;;;5.10;2.33;;;;;;;6.07;56.37;100668.66;4949121;28;20127;-72
2023/12/09 05:09:05;;;;;;;4.93;2.15;;;;;;;6.06;56.12;100661.50;4946206;29;20062;-72
2023/12/09 05:11:34;;;;;;;8.23;2.67;;;;;;;6.04;56.26;100668.88;4933424;29;20069;-72
2023/12/09 05:14:02;;;;;;;5.82;2.28;;;;;;;6.03;56.38;100660.88;4951583;28;20101;-73
2023/12/09 05:16:32;;;;;;;5.97;2.40;;;;;;;6.02;56.06;100657.28;4949363;28;20077;-72
2023/12/09 05:19:00;;;;;;;6.38;2.42;;;;;;;6.00;56.26;100651.06;4928698;29;20071;-72
2023/12/09 05:21:28;;;;;;;6.55;2.88;;;;;;;6.00;56.52;100655.63;4933256;28;20035;-72
2023/12/09 05:24:04;;;;;;;5.10;2.65;;;;;;;5.97;56.66;100651.28;4946880;29;20055;-72
2023/12/09 05:26:33;;;;;;;5.75;2.30;;;;;;;5.96;56.16;100651.38;4947235;28;20438;-73
2023/12/09 05:29:01;;;;;;;6.63;2.50;;;;;;;5.95;56.13;100636.09;4929279;29;20051;-72
2023/12/09 05:31:30;;;;;;;5.05;2.42;;;;;;;5.93;56.54;100625.34;4932027;29;20058;-72
2023/12/09 05:33:58;;;;;;;6.65;2.50;;;;;;;5.91;56.65;100640.88;4929952;29;20058;-72
2023/12/09 05:36:26;;;;;;;6.10;2.67;;;;;;;5.90;56.14;100639.13;4941571;29;20031;-72
2023/12/09 05:38:54;;;;;;;5.95;2.42;;;;;;;5.89;56.09;100645.53;4946664;29;20130;-72
2023/12/09 05:41:22;;;;;;;5.13;2.65;;;;;;;5.88;56.16;100634.78;4942394;28;20047;-72
2023/12/09 05:43:50;;;;;;;6.55;2.75;;;;;;;5.86;56.38;100634.03;4946550;28;20060;-72
2023/12/09 05:46:19;;;;;;;6.20;2.70;;;;;;;5.85;56.39;100621.44;4947870;29;20043;-72
2023/12/09 05:48:49;;;;;;;8.02;2.92;;;;;;;5.84;56.33;100639.56;4947008;28;20047;-72
2023/12/09 05:51:18;;;;;;;7.18;2.75;;;;;;;5.80;56.15;100635.31;4951162;28;20126;-72
2023/12/09 05:53:46;;;;;;;9.27;2.83;;;;;;;5.78;56.17;100644.56;4951634;28;20054;-72
2023/12/09 05:56:14;;;;;;;5.15;2.85;;;;;;;5.78;56.49;100637.31;4952433;28;20400;-72
2023/12/09 05:58:42;;;;;;;7.50;2.75;;;;;;;5.76;56.07;100630.22;4928213;29;20055;-72
2023/12/09 06:01:10;;;;;;;6.53;2.70;;;;;;;5.75;56.20;100628.50;4930619;29;20071;-72
2023/12/09 06:03:38;;;;;;;7.60;2.90;;;;;;;5.71;56.22;100629.69;4944084;29;20047;-72
2023/12/09 06:06:08;;;;;;;7.15;3.05;;;;;;;5.71;56.07;100624.28;4949156;28;20043;-72
2023/12/09 06:08:36;;;;;;;6.75;2.90;;;;;;;5.68;56.10;100622.63;4946465;28;20509;-72
2023/12/09 06:11:05;;;;;;;6.05;3.13;;;;;;;5.66;56.19;100617.31;4948238;28;20043;-72
2023/12/09 06:13:33;;;;;;;5.68;2.85;;;;;;;5.65;56.14;100609.25;4948613;28;20043;-72
2023/12/09 06:16:01;;;;;;;5.28;3.10;;;;;;;5.64;56.28;100616.53;4932752;28;20430;-72
2023/12/09 06:18:28;;;;;;;6.68;3.05;;;;;;;5.64;56.58;100615.66;4948040;28;20082;-72
2023/12/09 06:23:53;;;;;;;5.90;3.20;;;;;;;5.62;56.71;100615.78;4951106;28;20125;-73
2023/12/09 06:26:21;;;;;;;6.15;3.30;;;;;;;5.62;56.34;100614.94;4945216;28;20267;-73
2023/12/09 06:28:49;;;;;;;7.07;2.70;;;;;;;5.62;56.70;100607.63;4940229;28;20130;-74
2023/12/09 06:31:17;;;;;;;4.28;2.72;;;;;;;5.62;56.37;100615.78;4935865;29;20052;-74
2023/12/09 06:33:45;;;;;;;4.53;2.60;;;;;;;5.62;56.65;100607.63;4919166;29;20127;-74
2023/12/09 06:36:13;;;;;;;5.78;2.70;;;;;;;5.63;56.54;100605.78;4933372;29;20059;-74
2023/12/09 06:38:42;;;;;;;5.97;2.58;;;;;;;5.64;56.42;100600.25;4901168;29;20044;-74
2023/12/09 06:41:11;;;;;;;4.90;2.47;;;;;;;5.65;56.43;100599.28;4935609;29;20078;-74
2023/12/09 06:43:39;;;;;;;6.15;2.83;;;;;;;5.63;56.52;100595.78;4936521;29;20581;-74
2023/12/09 06:46:07;;;;;;;5.80;2.70;;;;;;;5.66;56.86;100595.59;4938512;29;20041;-74
2023/12/09 06:48:37;;;;;;;5.43;2.60;;;;;;;5.68;56.59;100592.75;4933747;29;20051;-74
2023/12/09 06:51:07;;;;;;;4.38;2.40;;;;;;;5.68;56.49;100590.06;4931643;29;20433;-74
2023/12/09 06:53:38;;;;;;;4.10;2.50;;;;;;;5.70;56.61;100581.81;4935962;29;20044;-74
2023/12/09 06:56:08;;;;;;;5.13;2.42;;;;;;;5.68;56.78;100579.19;4926567;29;20039;-74
2023/12/09 06:58:41;;;;;;;3.80;2.20;;;;;;;5.70;56.67;100569.09;4909657;29;20052;-74
2023/12/09 07:01:09;;;;;;;5.32;2.70;;;;;;;5.68;56.46;100562.91;4934115;29;20038;-74
2023/12/09 07:03:37;;;;;;;5.63;2.30;;;;;;;5.67;56.60;100562.03;4935122;29;20052;-74
2023/12/09 07:06:06;;;;;;;4.68;2.20;;;;;;;5.70;56.30;100557.38;4934469;29;20067;-74
2023/12/09 07:08:34;;;;;;;3.88;2.10;;;;;;;5.69;56.60;100559.22;4932330;28;20119;-74
2023/12/09 07:11:02;;;;;;;4.90;2.10;;;;;;;5.69;56.36;100556.50;4928532;29;20124;-74
2023/12/09 07:13:30;;;;;;;3.92;1.98;;;;;;;5.68;56.36;100550.19;4917522;29;20346;-74
2023/12/09 07:16:00;;;;;;;4.72;2.08;;;;;;;5.70;56.59;100544.66;4938094;29;20046;-74
2023/12/09 07:18:28;;;;;;;5.05;2.00;;;;;;;5.68;56.42;100550.19;4931138;29;20127;-74
2023/12/09 07:20:56;;;;;;;4.60;1.90;;;;;;;5.67;56.41;100545.75;4934112;29;20055;-74
2023/12/09 07:23:24;;;;;;;4.05;2.30;;;;;;;5.68;56.45;100533.03;4918263;29;20514;-74
2023/12/09 07:25:51;;;;;;;3.67;2.00;;;;;;;5.69;56.31;100529.34;4932120;29;20036;-73
2023/12/09 07:28:19;;;;;;;3.70;2.00;;;;;;;5.68;56.81;100531.19;4927016;29;20571;-73
2023/12/09 07:30:47;;;;;;;5.78;2.10;;;;;;;5.69;56.20;100537.50;4934022;29;20421;-74
2023/12/09 07:33:16;;;;;;;5.75;2.38;;;;;;;5.70;56.30;100524.78;4932650;29;20052;-73
2023/12/09 07:35:44;;;;;;;4.63;2.35;;;;;;;5.70;56.32;100520.22;4919747;29;20050;-73
2023/12/09 07:38:13;;;;;;;3.45;1.95;;;;;;;5.70;56.54;100505.78;4933588;29;20054;-73
2023/12/09 07:40:41;;;;;;;6.07;2.40;;;;;;;5.69;56.30;100502.19;4935511;29;20638;-73
2023/12/09 07:43:09;;;;;;;5.07;2.00;;;;;;;5.70;56.62;100508.50;4933580;29;20608;-73
2023/12/09 07:45:37;;;;;;;4.00;2.10;;;;;;;5.70;56.43;100503.06;4937317;29;20126;-74
2023/12/09 07:48:05;;;;;;;4.55;2.15;;;;;;;5.67;56.62;100491.44;4932959;29;20054;-73
2023/12/09 07:50:35;;;;;;;4.53;1.88;;;;;;;5.71;56.44;100485.78;4917393;29;20453;-74
2023/12/09 07:53:04;;;;;;;4.05;2.38;;;;;;;5.70;56.65;100490.34;4932164;29;20545;-73
2023/12/09 07:55:32;;;;;;;5.15;2.25;;;;;;;5.69;56.37;100475.03;4929436;29;20051;-74
2023/12/09 07:58:00;;;;;;;5.45;2.45;;;;;;;5.70;56.40;100470.47;4910998;29;20048;-74
2023/12/09 08:00:28;;;;;;;4.25;1.95;;;;;;;5.70;56.49;100465.91;4934843;29;20489;-74
2023/12/09 08:02:56;;;;;;;4.35;1.80;;;;;;;5.71;56.59;100458.66;4920659;29;20051;-74
2023/12/09 08:05:24;;;;;;;3.92;2.00;;;;;;;5.71;56.52;100454.06;4931470;29;20107;-73
2023/12/09 08:07:53;;;;;;;7.78;2.83;;;;;;;5.73;56.41;100456.66;4918975;29;20075;-74
2023/12/09 08:10:21;;;;;;;5.82;2.03;;;;;;;5.73;56.61;100457.53;4932108;29;20043;-73
2023/12/09 08:12:49;;;;;;;5.07;2.17;;;;;;;5.72;56.63;100458.50;4933943;29;20139;-73
2023/12/09 08:15:17;;;;;;;5.43;2.45;;;;;;;5.73;56.45;100448.50;4933425;29;20043;-73
2023/12/09 08:17:45;;;;;;;3.75;2.00;;;;;;;5.74;56.54;100445.69;4932277;29;20884;-73
2023/12/09 08:20:13;;;;;;;4.30;2.00;;;;;;;5.75;56.69;100430.28;4936084;29;20058;-73
2023/12/09 08:22:41;;;;;;;2.88;1.55;;;;;;;5.76;56.44;100423.88;4932836;29;20066;-74
2023/12/09 08:25:10;;;;;;;3.22;1.80;;;;;;;5.78;56.77;100413.75;4936260;29;20138;-73
2023/12/09 08:27:38;;;;;;;4.50;1.90;;;;;;;5.76;56.52;100403.00;4932858;29;20047;-73
2023/12/09 08:30:10;;;;;;;5.68;2.05;;;;;;;5.79;56.70;100407.34;4915198;29;20071;-73
2023/12/09 08:32:39;;;;;;;3.63;1.90;;;;;;;5.79;56.51;100415.50;4930320;29;20043;-74
2023/12/09 08:35:08;;;;;;;4.20;1.83;;;;;;;5.80;56.50;100418.06;4931712;29;20048;-74
2023/12/09 08:37:37;;;;;;;3.05;1.80;;;;;;;5.81;56.49;100419.81;4932441;29;20035;-73
2023/12/09 08:40:10;;;;;;;4.60;2.08;;;;;;;5.81;56.73;100411.66;4933978;29;20040;-73
2023/12/09 08:42:41;;;;;;;3.90;2.25;;;;;;;5.82;56.62;100412.53;4915875;29;21153;-74
2023/12/09 08:45:11;;;;;;;4.15;2.08;;;;;;;5.81;56.88;100406.22;4916450;29;20059;-74
2023/12/09 08:47:39;;;;;;;3.88;1.75;;;;;;;5.83;56.51;100407.00;4931909;29;20055;-73
2023/12/09 08:50:12;;;;;;;4.28;1.80;;;;;;;5.84;56.58;100399.72;4931897;29;20067;-74
2023/12/09 08:52:51;;;;;;;5.18;2.00;;;;;;;5.85;56.84;100399.59;4929580;29;20071;-74
2023/12/09 08:55:19;;;;;;;5.60;1.88;;;;;;;5.86;56.78;100404.06;4915771;29;20106;-73
2023/12/09 08:57:51;;;;;;;5.10;1.90;;;;;;;5.89;56.61;100408.38;4926892;29;20051;-74
2023/12/09 09:00:20;;;;;;;4.35;1.80;;;;;;;5.87;56.85;100410.38;4935585;29;20035;-75
2023/12/09 09:02:50;;;;;;;6.63;2.72;;;;;;;5.90;56.78;100412.81;4929714;29;20191;-74
2023/12/09 09:05:18;;;;;;;5.38;1.88;;;;;;;5.91;56.84;100400.97;4911111;29;20048;-74
2023/12/09 09:07:46;;;;;;;4.65;2.08;;;;;;;5.93;56.84;100409.88;4913705;29;20052;-74
2023/12/09 09:10:14;;;;;;;5.60;1.98;;;;;;;5.94;56.84;100406.19;4910584;29;20044;-75
2023/12/09 09:12:43;;;;;;;4.22;2.15;;;;;;;5.96;56.60;100404.22;4931133;29;20098;-74
2023/12/09 09:15:15;;;;;;;6.40;2.15;;;;;;;5.99;56.67;100398.56;4917090;29;20039;-75
2023/12/09 09:17:43;;;;;;;5.10;2.22;;;;;;;5.98;56.70;100392.25;4926867;29;20486;-74
2023/12/09 09:20:12;;;;;;;5.00;2.22;;;;;;;6.00;56.67;100392.16;4918797;29;20044;-75
2023/12/09 09:22:41;;;;;;;5.72;2.20;;;;;;;6.02;56.98;100372.03;4915435;29;20082;-75
2023/12/09 09:25:15;;;;;;;4.28;1.98;;;;;;;6.05;57.01;100369.06;4928839;29;20477;-75
2023/12/09 09:27:43;;;;;;;5.82;2.40;;;;;;;6.07;57.25;100369.81;4932254;29;20103;-75
2023/12/09 09:30:13;;;;;;;4.35;1.88;;;;;;;6.13;56.94;100368.47;4914961;29;20043;-75
2023/12/09 09:32:42;;;;;;;4.35;1.90;;;;;;;6.14;56.92;100348.47;4919800;29;20059;-75
2023/12/09 09:35:10;;;;;;;6.18;2.13;;;;;;;6.19;57.29;100354.44;4925375;29;20099;-75
2023/12/09 09:37:38;;;;;;;5.43;2.10;;;;;;;6.21;56.86;100343.44;4912767;29;20040;-76
2023/12/09 09:40:07;;;;;;;5.18;2.22;;;;;;;6.25;56.85;100343.09;4912817;29;20066;-73
2023/12/09 09:42:41;;;;;;;5.32;2.10;;;;;;;6.28;56.97;100345.53;4930947;29;20079;-74
2023/12/09 09:45:20;;;;;;;3.92;1.83;;;;;;;6.31;56.78;100342.59;4932175;29;20044;-72
2023/12/09 09:47:53;;;;;;;7.38;2.47;;;;;;;6.32;57.11;100329.88;4930672;29;20438;-75
2023/12/09 09:50:22;;;;;;;4.85;2.00;;;;;;;6.37;57.00;100319.50;4930756;29;20039;-73
2023/12/09 09:52:51;;;;;;;6.00;2.47;;;;;;;6.36;57.13;100318.66;4910829;29;20140;-76
2023/12/09 09:55:21;;;;;;;5.43;2.03;;;;;;;6.41;56.60;100291.09;4931720;29;20110;-74
2023/12/09 09:57:50;;;;;;;5.00;1.90;;;;;;;6.42;56.83;100285.56;4910843;29;20043;-73
2023/12/09 10:00:21;;;;;;;6.55;2.33;;;;;;;6.45;56.85;100282.56;4931290;29;20040;-73
2023/12/09 10:02:50;;;;;;;4.45;1.90;;;;;;;6.48;56.48;100253.41;4925648;29;20540;-73
2023/12/09 10:05:22;;;;;;;5.10;2.15;;;;;;;6.46;56.70;100250.81;4907928;29;20055;-73
2023/12/09 10:07:50;;;;;;;7.15;2.30;;;;;;;6.50;56.45;100243.31;4912585;29;20058;-73
2023/12/09 10:10:18;;;;;;;8.25;2.40;;;;;;;6.51;56.34;100240.47;4924170;29;20047;-73
2023/12/09 10:12:46;;;;;;;8.55;3.70;;;;;;;6.53;56.48;100229.47;4930157;29;20122;-73
2023/12/09 10:15:14;;;;;;;8.02;2.30;;;;;;;6.53;56.37;100226.75;4925131;29;20047;-73
2023/12/09 10:17:44;;;;;;;7.20;2.38;;;;;;;6.55;56.16;100224.75;4928505;29;20138;-74
2023/12/09 10:20:12;;;;;;;3.35;1.67;;;;;;;6.55;56.43;100219.31;4926640;29;20040;-74
2023/12/09 10:22:41;;;;;;;6.28;3.03;;;;;;;6.57;56.11;100207.34;4929895;29;20540;-74
2023/12/09 10:25:09;;;;;;;6.15;2.15;;;;;;;6.57;56.08;100196.47;4929527;29;20122;-73
2023/12/09 10:27:41;;;;;;;5.70;2.38;;;;;;;6.60;55.74;100195.34;4931973;28;20044;-73
2023/12/09 10:30:10;;;;;;;6.43;2.13;;;;;;;6.59;56.40;100202.66;4928013;29;20040;-73
2023/12/09 10:32:38;;;;;;;6.78;2.20;;;;;;;6.61;56.27;100211.53;4932069;29;20050;-73
2023/12/09 10:35:09;;;;;;;6.07;2.17;;;;;;;6.63;56.19;100186.94;4910013;29;20596;-73
2023/12/09 10:37:37;;;;;;;6.18;2.10;;;;;;;6.66;56.29;100189.41;4929026;29;20056;-73
2023/12/09 10:40:08;;;;;;;5.65;1.85;;;;;;;6.68;56.35;100184.72;4933688;29;20039;-73
2023/12/09 10:42:37;;;;;;;6.68;2.30;;;;;;;6.71;56.42;100176.28;4913413;29;20044;-73
2023/12/09 10:45:07;;;;;;;6.18;2.08;;;;;;;6.73;56.33;100174.31;4925065;29;20075;-73
2023/12/09 10:47:36;;;;;;;4.78;2.08;;;;;;;6.73;56.11;100158.88;4915952;28;20063;-73
2023/12/09 10:50:05;;;;;;;7.72;2.55;;;;;;;6.78;56.42;100155.78;4908764;29;20569;-73
2023/12/09 10:52:34;;;;;;;5.38;2.28;;;;;;;6.79;56.13;100150.22;4930690;29;20556;-73
2023/12/09 10:55:06;;;;;;;8.63;2.83;;;;;;;6.77;56.14;100141.34;4925885;29;20052;-75
2023/12/09 10:57:34;;;;;;;6.45;2.03;;;;;;;6.82;56.28;100146.41;4927845;29;20059;-75
2023/12/09 11:00:09;;;;;;;5.53;1.92;;;;;;;6.86;56.38;100136.97;4921299;29;20044;-74
2023/12/09 11:02:40;;;;;;;5.50;1.90;;;;;;;6.86;56.03;100147.00;4928183;29;20046;-75
2023/12/09 11:05:09;;;;;;;4.57;1.90;;;;;;;6.88;56.29;100126.84;4927067;29;20652;-73
2023/12/09 11:07:40;;;;;;;6.28;2.08;;;;;;;6.90;55.80;100094.94;4911579;29;20422;-72
2023/12/09 11:10:10;;;;;;;5.97;2.13;;;;;;;6.91;56.24;100087.63;4930269;29;20561;-74
2023/12/09 11:12:38;;;;;;;6.15;2.17;;;;;;;6.93;56.00;100064.75;4930491;29;20482;-74
2023/12/09 11:15:17;;;;;;;7.75;2.97;;;;;;;6.94;55.88;100062.91;4912623;29;20047;-74
2023/12/09 11:17:45;;;;;;;4.55;2.20;;;;;;;6.95;55.86;100037.41;4931666;29;20725;-73
2023/12/09 11:20:18;;;;;;;6.70;2.25;;;;;;;6.98;55.89;100057.06;4934681;29;20036;-73
2023/12/09 11:22:48;;;;;;;4.72;1.88;;;;;;;7.00;55.73;100035.19;4932318;29;20051;-74
2023/12/09 11:25:25;;;;;;;7.63;2.45;;;;;;;7.04;55.43;100012.13;4931884;29;20047;-74
2023/12/09 11:27:54;;;;;;;7.40;2.28;;;;;;;7.04;56.16;100015.72;4915505;29;20044;-73
2023/12/09 11:30:34;;;;;;;5.22;2.15;;;;;;;7.06;55.17;99985.66;4932076;29;20087;-74
2023/12/09 11:33:03;;;;;;;4.60;1.90;;;;;;;7.05;55.99;99982.09;4926836;29;20087;-74
2023/12/09 11:35:34;;;;;;;8.98;2.63;;;;;;;7.08;56.17;99957.34;4915661;29;20046;-74
2023/12/09 11:38:06;;;;;;;7.30;2.33;;;;;;;7.09;55.73;99960.94;4930356;29;20513;-74
2023/12/09 11:40:36;;;;;;;7.00;2.17;;;;;;;7.06;55.62;99947.56;4914875;29;20036;-74
2023/12/09 11:43:06;;;;;;;5.30;2.20;;;;;;;7.10;55.87;99944.47;4932948;29;20060;-74
2023/12/09 11:45:36;;;;;;;5.45;2.05;;;;;;;7.13;55.69;99937.88;4929721;29;20080;-71